createdAt,value
2018-06-04T00:04:27.014Z,17.03
2018-06-04T00:09:30.711Z,19.07
2018-06-04T00:14:34.540Z,15.60
2018-06-04T00:19:38.505Z,14.73
2018-06-04T00:24:42.467Z,18.23
2018-06-04T00:29:46.447Z,14.23
2018-06-04T00:34:54.077Z,15.03
2018-06-04T00:39:58.001Z,15.60
2018-06-04T00:45:02.683Z,18.37
2018-06-04T00:50:06.502Z,17.77
2018-06-04T00:55:10.459Z,9.37
2018-06-04T01:00:14.394Z,16.53
2018-06-04T01:05:18.351Z,15.00
2018-06-04T01:10:22.321Z,21.03
2018-06-04T01:15:26.276Z,13.20
2018-06-04T01:20:30.239Z,21.10
2018-06-04T01:25:34.207Z,11.03
2018-06-04T01:30:38.175Z,15.87
2018-06-04T01:35:42.113Z,21.70
2018-06-04T01:40:46.086Z,8.90
2018-06-04T01:45:50.050Z,10.07
2018-06-04T01:50:53.995Z,17.17
2018-06-04T01:55:57.928Z,17.47
2018-06-04T02:01:01.967Z,10.10
2018-06-04T02:06:05.699Z,18.17
2018-06-04T02:11:09.518Z,10.50
2018-06-04T02:16:15.673Z,9.07
2018-06-04T02:21:19.602Z,9.27
2018-06-04T02:26:23.566Z,10.03
2018-06-04T02:31:27.542Z,10.30
2018-06-04T02:36:31.479Z,7.43
2018-06-04T02:41:35.202Z,9.33
2018-06-04T02:46:39.024Z,8.77
2018-06-04T02:51:42.980Z,7.80
2018-06-04T02:56:46.907Z,9.07
2018-06-04T03:01:50.857Z,9.53
2018-06-04T03:06:54.819Z,13.10
2018-06-04T03:11:58.539Z,8.47
2018-06-04T03:17:02.379Z,9.03
2018-06-04T03:22:06.307Z,9.60
2018-06-04T03:27:10.261Z,7.90
2018-06-04T03:32:14.207Z,11.27
2018-06-04T03:37:18.017Z,9.17
2018-06-04T03:42:21.954Z,8.90
2018-06-04T03:47:25.900Z,10.67
2018-06-04T03:52:29.856Z,10.03
2018-06-04T03:57:33.796Z,10.57
2018-06-04T04:02:37.763Z,13.50
2018-06-04T04:07:41.475Z,9.07
2018-06-04T04:12:45.293Z,10.80
2018-06-04T04:17:49.247Z,8.73
2018-06-04T04:22:53.215Z,17.10
2018-06-04T04:27:57.190Z,15.03
2018-06-04T04:33:00.882Z,15.47
2018-06-04T04:38:05.559Z,20.40
2018-06-04T04:43:10.701Z,12.67
2018-06-04T04:48:14.827Z,14.63
2018-06-04T04:53:18.781Z,13.60
2018-06-04T04:58:22.723Z,12.83
2018-06-04T05:03:26.679Z,15.07
2018-06-04T05:08:30.662Z,25.67
2018-06-04T05:13:34.643Z,24.97
2018-06-04T05:18:38.626Z,22.77
2018-06-04T05:23:42.370Z,13.47
2018-06-04T05:28:46.236Z,19.80
2018-06-04T05:33:50.207Z,21.53
2018-06-04T05:38:54.166Z,15.90
2018-06-04T05:43:58.115Z,19.50
2018-06-04T05:49:02.074Z,18.00
2018-06-04T05:54:06.085Z,29.90
2018-06-04T05:59:10.044Z,28.30
2018-06-04T06:04:14.019Z,18.43
2018-06-04T06:09:18.048Z,12.73
2018-06-04T06:14:22.026Z,23.10
2018-06-04T06:19:25.933Z,32.13
2018-06-04T06:24:29.895Z,30.00
2018-06-04T06:29:33.884Z,31.63
2018-06-04T06:34:37.807Z,29.27
2018-06-04T06:39:42.960Z,11.50
2018-06-04T06:44:46.893Z,18.83
2018-06-04T06:49:50.875Z,27.80
2018-06-04T06:54:54.831Z,18.87
2018-06-04T06:59:58.798Z,29.00
2018-06-04T07:05:02.772Z,27.43
2018-06-04T07:10:06.755Z,14.67
2018-06-04T07:15:10.726Z,25.03
2018-06-04T07:20:14.675Z,20.80
2018-06-04T07:25:18.387Z,24.17
2018-06-04T07:30:22.211Z,18.60
2018-06-04T07:35:27.016Z,12.63
2018-06-04T07:40:30.955Z,12.23
2018-06-04T07:45:34.899Z,11.40
2018-06-04T07:50:38.603Z,9.83
2018-06-04T07:55:42.443Z,9.73
2018-06-04T08:00:46.427Z,25.53
2018-06-04T08:05:50.415Z,17.20
2018-06-04T08:10:54.452Z,24.93
2018-06-04T08:15:58.422Z,15.30
2018-06-04T08:21:02.399Z,16.30
2018-06-04T08:26:06.384Z,17.70
2018-06-04T08:31:10.397Z,18.83
2018-06-04T08:36:14.366Z,15.90
2018-06-04T08:41:18.303Z,14.50
2018-06-04T08:46:22.267Z,9.90
2018-06-04T08:51:26.207Z,11.73
2018-06-04T08:56:30.155Z,14.80
2018-06-04T09:01:34.112Z,11.73
2018-06-04T09:06:38.096Z,9.33
2018-06-04T09:11:41.791Z,11.90
2018-06-04T09:16:45.638Z,12.83
2018-06-04T09:21:49.814Z,11.80
2018-06-04T09:26:53.739Z,11.10
2018-06-04T09:31:57.679Z,11.20
2018-06-04T09:37:01.620Z,5.60
2018-06-04T09:42:06.448Z,12.77
2018-06-04T09:47:10.432Z,12.60
2018-06-04T09:52:14.383Z,15.27
2018-06-04T09:57:18.344Z,6.67
2018-06-04T10:02:22.271Z,11.10
2018-06-04T10:07:27.114Z,8.47
2018-06-04T10:12:31.179Z,8.23
2018-06-04T10:17:35.125Z,6.40
2018-06-04T10:22:39.075Z,8.00
2018-06-04T10:27:43.017Z,10.33
2018-06-04T10:32:47.007Z,12.93
2018-06-04T10:37:50.947Z,7.13
2018-06-04T10:42:54.894Z,12.47
2018-06-04T10:47:58.599Z,9.03
2018-06-04T10:53:02.415Z,9.43
2018-06-04T10:58:06.368Z,14.67
2018-06-04T11:03:10.296Z,9.10
2018-06-04T11:08:14.317Z,9.17
2018-06-04T11:13:18.248Z,10.87
2018-06-04T11:18:22.193Z,7.80
2018-06-04T11:23:26.144Z,6.80
2018-06-04T11:28:30.101Z,13.27
2018-06-04T11:33:34.069Z,6.17
2018-06-04T11:38:38.215Z,7.27
2018-06-04T11:43:42.142Z,6.03
2018-06-04T11:48:46.104Z,6.93
2018-06-04T11:53:49.793Z,8.47
2018-06-04T11:58:53.622Z,10.53
2018-06-04T12:03:57.567Z,8.57
2018-06-04T12:09:01.502Z,9.97
2018-06-04T12:14:05.478Z,8.33
2018-06-04T12:19:09.421Z,7.93
2018-06-04T12:24:13.391Z,10.67
2018-06-04T12:29:17.352Z,9.47
2018-06-04T12:34:21.309Z,12.53
2018-06-04T12:39:25.259Z,14.27
2018-06-04T12:44:29.226Z,10.27
2018-06-04T12:49:33.185Z,7.63
2018-06-04T12:54:37.160Z,7.70
2018-06-04T12:59:41.099Z,11.27
2018-06-04T13:04:45.129Z,11.10
2018-06-04T13:09:48.994Z,9.93
2018-06-04T13:14:52.930Z,8.40
2018-06-04T13:19:56.884Z,11.17
2018-06-04T13:25:00.855Z,12.43
2018-06-04T13:30:04.582Z,9.53
2018-06-04T13:35:08.424Z,9.97
2018-06-04T13:40:12.363Z,11.27
2018-06-04T13:45:16.325Z,9.23
2018-06-04T13:50:20.349Z,10.17
2018-06-04T13:55:24.324Z,9.27
2018-06-04T14:00:28.302Z,11.10
2018-06-04T14:05:32.254Z,9.93
2018-06-04T14:10:36.213Z,9.40
2018-06-04T14:15:40.170Z,9.30
2018-06-04T14:20:44.130Z,8.27
2018-06-04T14:25:48.830Z,7.70
2018-06-04T14:30:52.806Z,10.00
2018-06-04T14:35:56.882Z,9.27
2018-06-04T14:41:00.834Z,13.63
2018-06-04T14:46:04.771Z,8.77
2018-06-04T14:51:08.706Z,10.83
2018-06-04T14:56:12.655Z,12.10
2018-06-04T15:01:16.631Z,10.77
2018-06-04T15:06:20.391Z,10.87
2018-06-04T15:11:24.223Z,9.13
2018-06-04T15:16:28.171Z,8.03
2018-06-04T15:21:32.103Z,9.80
2018-06-04T15:26:36.062Z,9.77
2018-06-04T15:31:40.017Z,10.80
2018-06-04T15:36:43.958Z,10.03
2018-06-04T15:41:47.934Z,9.93
2018-06-04T15:46:51.909Z,10.13
2018-06-04T15:51:55.844Z,11.60
2018-06-04T15:57:00.506Z,9.20
2018-06-04T16:02:04.462Z,8.83
2018-06-04T16:07:08.426Z,7.80
2018-06-04T16:12:12.431Z,9.20
2018-06-04T16:17:16.382Z,7.70
2018-06-04T16:22:20.323Z,9.53
2018-06-04T16:27:24.297Z,8.93
2018-06-04T16:32:28.263Z,9.97
2018-06-04T16:37:32.539Z,9.00
2018-06-04T16:42:36.426Z,7.97
2018-06-04T16:47:40.236Z,9.83
2018-06-04T16:52:44.062Z,8.87
2018-06-04T16:57:48.015Z,9.83
2018-06-04T17:02:51.939Z,7.47
2018-06-04T17:07:55.903Z,10.87
2018-06-04T17:12:59.882Z,9.13
2018-06-04T17:18:03.823Z,13.40
2018-06-04T17:23:07.764Z,8.80
2018-06-04T17:28:11.712Z,7.13
2018-06-04T17:33:16.055Z,8.40
2018-06-04T17:38:20.212Z,9.60
2018-06-04T17:43:24.159Z,8.40
2018-06-04T17:48:28.966Z,8.33
2018-06-04T17:53:32.914Z,9.77
2018-06-04T17:58:36.851Z,6.90
2018-06-04T18:03:40.809Z,7.40
2018-06-04T18:08:44.750Z,8.17
2018-06-04T18:13:48.715Z,6.87
2018-06-04T18:18:52.772Z,8.67
2018-06-04T18:23:56.743Z,7.47
2018-06-04T18:29:00.734Z,9.07
2018-06-04T18:34:04.687Z,7.90
2018-06-04T18:39:11.088Z,9.63
2018-06-04T18:44:14.785Z,7.53
2018-06-04T18:49:18.651Z,6.57
2018-06-04T18:54:22.612Z,8.03
2018-06-04T18:59:26.571Z,8.73
2018-06-04T19:04:30.273Z,6.20
2018-06-04T19:09:34.094Z,6.67
2018-06-04T19:14:38.035Z,6.10
2018-06-04T19:19:41.978Z,9.53
2018-06-04T19:24:45.935Z,8.08
2018-06-04T19:29:49.883Z,7.90
2018-06-04T19:34:53.862Z,8.23
2018-06-04T19:39:57.850Z,10.77
2018-06-04T19:45:01.836Z,7.70
2018-06-04T19:50:05.839Z,10.23
2018-06-04T19:55:09.802Z,12.73
2018-06-04T20:00:13.774Z,11.40
2018-06-04T20:05:17.742Z,7.27
2018-06-04T20:10:21.706Z,8.43
2018-06-04T20:15:25.426Z,9.17
2018-06-04T20:20:29.572Z,8.17
2018-06-04T20:25:33.294Z,8.27
2018-06-04T20:30:37.138Z,6.87
2018-06-04T20:35:41.156Z,6.20
2018-06-04T20:40:45.163Z,6.43
2018-06-04T20:45:49.153Z,12.17
2018-06-04T20:50:53.097Z,8.10
2018-06-04T20:55:57.091Z,9.07
2018-06-04T21:01:01.047Z,8.50
2018-06-04T21:06:05.012Z,6.43
2018-06-04T21:11:08.942Z,9.40
2018-06-04T21:16:12.894Z,8.27
2018-06-04T21:21:16.601Z,7.97
2018-06-04T21:26:20.470Z,8.60
2018-06-04T21:31:24.487Z,8.20
2018-06-04T21:36:28.199Z,6.63
2018-06-04T21:41:32.054Z,7.47
2018-06-04T21:46:35.998Z,7.43
2018-06-04T21:51:39.812Z,6.17
2018-06-04T21:56:43.632Z,8.87
2018-06-04T22:01:47.594Z,6.43
2018-06-04T22:06:51.551Z,7.40
2018-06-04T22:11:55.528Z,7.10
2018-06-04T22:16:59.542Z,6.90
2018-06-04T22:22:03.426Z,8.63
2018-06-04T22:27:07.399Z,7.63
2018-06-04T22:32:11.356Z,7.40
2018-06-04T22:37:15.054Z,7.90
2018-06-04T22:42:18.893Z,12.70
2018-06-04T22:47:22.855Z,7.90
2018-06-04T22:52:26.797Z,11.63
2018-06-04T22:57:30.752Z,7.27
2018-06-04T23:02:34.694Z,8.07
2018-06-04T23:07:41.015Z,9.50
2018-06-04T23:12:44.979Z,12.97
2018-06-04T23:17:49.155Z,9.00
2018-06-04T23:22:52.963Z,7.53
2018-06-04T23:27:56.943Z,6.57
2018-06-04T23:33:00.922Z,7.03
2018-06-04T23:38:04.859Z,8.97
2018-06-04T23:43:08.995Z,7.10
2018-06-04T23:48:12.955Z,11.17
2018-06-04T23:53:16.910Z,8.70
2018-06-04T23:58:20.911Z,14.87
